createdAt,value
2022-09-15T00:03:15.279Z,98385.29
2022-09-15T00:08:22.562Z,98374.92
2022-09-15T00:13:29.563Z,98367.86
2022-09-15T00:18:38.059Z,98360.66
2022-09-15T00:23:45.214Z,98357.57
2022-09-15T00:28:52.747Z,98350.04
2022-09-15T00:34:03.432Z,98348.77
2022-09-15T00:39:10.397Z,98344.05
2022-09-15T00:44:51.760Z,98342.27
2022-09-15T00:50:02.965Z,98346.88
2022-09-15T00:55:13.985Z,98341.95
2022-09-15T01:00:24.270Z,98345.64
2022-09-15T01:05:35.203Z,98345.86
2022-09-15T01:10:45.189Z,98351.92
2022-09-15T01:16:04.591Z,98348.77
2022-09-15T01:21:32.189Z,98345.14
2022-09-15T01:27:18.776Z,98341.40
2022-09-15T01:32:54.846Z,98340.30
2022-09-15T01:38:05.471Z,98344.34
2022-09-15T01:43:15.333Z,98340.29
2022-09-15T01:48:26.376Z,98341.16
2022-09-15T01:53:35.334Z,98339.19
2022-09-15T01:58:44.065Z,98341.45
2022-09-15T02:03:55.780Z,98333.81
2022-09-15T02:09:09.099Z,98325.23
2022-09-15T02:14:21.229Z,98315.25
2022-09-15T02:19:34.697Z,98306.23
2022-09-15T02:24:46.518Z,98303.83
2022-09-15T02:29:57.995Z,98299.92
2022-09-15T02:35:08.143Z,98296.41
2022-09-15T02:40:16.670Z,98295.03
2022-09-15T02:45:24.525Z,98291.30
2022-09-15T02:50:31.464Z,98287.51
2022-09-15T02:55:38.684Z,98287.92
2022-09-15T03:00:45.685Z,98286.69
2022-09-15T03:05:52.666Z,98288.48
2022-09-15T03:11:02.135Z,98288.70
2022-09-15T03:16:13.943Z,98284.38
2022-09-15T03:21:21.377Z,98284.80
2022-09-15T03:26:28.829Z,98278.55
2022-09-15T03:31:35.955Z,98276.77
2022-09-15T03:36:43.467Z,98279.57
2022-09-15T03:41:50.499Z,98281.44
2022-09-15T03:46:58.470Z,98276.52
2022-09-15T03:52:06.466Z,98279.83
2022-09-15T03:57:13.589Z,98278.85
2022-09-15T04:02:21.678Z,98280.92
2022-09-15T04:07:28.765Z,98278.77
2022-09-15T04:12:36.291Z,98275.12
2022-09-15T04:17:43.325Z,98271.93
2022-09-15T04:22:50.581Z,98275.32
2022-09-15T04:27:57.805Z,98275.89
2022-09-15T04:33:04.870Z,98273.23
2022-09-15T04:38:11.870Z,98272.66
2022-09-15T04:43:18.936Z,98265.65
2022-09-15T04:48:26.885Z,98258.20
2022-09-15T04:53:34.002Z,98255.42
2022-09-15T04:58:43.340Z,98254.33
2022-09-15T05:03:50.358Z,98254.32
2022-09-15T05:08:59.250Z,98249.21
2022-09-15T05:14:06.299Z,98245.73
2022-09-15T05:19:14.378Z,98245.92
2022-09-15T05:24:21.256Z,98243.49
2022-09-15T05:29:28.510Z,98241.68
2022-09-15T05:34:36.112Z,98236.64
2022-09-15T05:39:43.471Z,98241.01
2022-09-15T05:44:50.367Z,98236.34
2022-09-15T05:49:57.175Z,98233.77
2022-09-15T05:55:04.069Z,98233.65
2022-09-15T06:00:13.784Z,98230.89
2022-09-15T06:05:21.266Z,98227.52
2022-09-15T06:10:28.523Z,98230.74
2022-09-15T06:15:35.866Z,98229.21
2022-09-15T06:20:43.256Z,98223.36
2022-09-15T06:25:50.333Z,98223.36
2022-09-15T06:30:57.300Z,98222.17
2022-09-15T06:36:07.859Z,98226.19
2022-09-15T06:41:15.183Z,98227.66
2022-09-15T06:46:23.628Z,98219.19
2022-09-15T06:51:35.773Z,98214.17
2022-09-15T06:56:41.233Z,98207.59
2022-09-15T07:01:48.479Z,98204.09
2022-09-15T07:06:55.472Z,98200.45
2022-09-15T07:12:02.795Z,98201.20
2022-09-15T07:17:10.115Z,98204.58
2022-09-15T07:22:17.270Z,98205.67
2022-09-15T07:27:27.425Z,98211.71
2022-09-15T07:32:34.803Z,98208.39
2022-09-15T07:37:41.818Z,98208.06
2022-09-15T07:42:49.088Z,98211.59
2022-09-15T07:47:56.501Z,98211.65
2022-09-15T07:53:03.930Z,98206.52
2022-09-15T07:58:11.685Z,98206.43
2022-09-15T08:03:19.312Z,98204.76
2022-09-15T08:08:27.320Z,98203.48
2022-09-15T08:13:34.765Z,98205.73
2022-09-15T08:18:43.580Z,98200.73
2022-09-15T08:23:57.325Z,98198.27
2022-09-15T08:29:07.348Z,98189.71
2022-09-15T08:34:21.507Z,98194.63
2022-09-15T08:39:32.282Z,98201.69
2022-09-15T08:44:53.612Z,98195.38
2022-09-15T08:50:05.800Z,98195.41
2022-09-15T08:55:15.613Z,98197.63
2022-09-15T09:00:23.244Z,98195.09
2022-09-15T09:05:52.893Z,98195.25
2022-09-15T09:11:07.572Z,98190.30
2022-09-15T09:16:48.767Z,98189.38
2022-09-15T09:22:01.529Z,98193.90
2022-09-15T09:27:13.432Z,98191.23
2022-09-15T09:32:22.090Z,98186.04
2022-09-15T09:37:29.733Z,98185.72
2022-09-15T09:42:38.533Z,98178.33
2022-09-15T09:47:46.650Z,98167.15
2022-09-15T09:52:53.732Z,98167.16
2022-09-15T09:58:16.336Z,98165.97
2022-09-15T10:03:29.273Z,98169.61
2022-09-15T10:08:53.078Z,98172.45
2022-09-15T10:14:00.311Z,98168.73
2022-09-15T10:19:07.325Z,98170.11
2022-09-15T10:24:36.764Z,98164.34
2022-09-15T10:29:43.861Z,98162.80
2022-09-15T10:34:51.609Z,98167.70
2022-09-15T10:40:00.461Z,98164.84
2022-09-15T10:45:25.321Z,98166.98
2022-09-15T10:50:36.404Z,98170.86
2022-09-15T10:55:57.310Z,98166.96
2022-09-15T11:01:20.798Z,98169.02
2022-09-15T11:06:36.419Z,98166.79
2022-09-15T11:11:54.267Z,98169.71
2022-09-15T11:17:20.687Z,98166.38
2022-09-15T11:22:30.527Z,98167.71
2022-09-15T11:27:43.230Z,98166.88
2022-09-15T11:32:57.929Z,98176.67
2022-09-15T11:38:19.961Z,98172.05
2022-09-15T11:43:35.972Z,98173.63
2022-09-15T11:48:49.579Z,98173.70
2022-09-15T11:54:03.207Z,98178.66
2022-09-15T11:59:21.725Z,98186.98
2022-09-15T12:04:33.721Z,98181.63
2022-09-15T12:09:42.535Z,98182.91
2022-09-15T12:14:51.972Z,98181.11
2022-09-15T12:20:04.419Z,98181.50
2022-09-15T12:25:18.423Z,98177.23
2022-09-15T12:36:41.951Z,98176.56
2022-09-15T12:41:53.037Z,98188.43
2022-09-15T12:47:03.517Z,98187.46
2022-09-15T12:52:11.520Z,98185.38
2022-09-15T12:57:27.092Z,98180.58
2022-09-15T13:02:48.843Z,98177.42
2022-09-15T13:08:00.682Z,98177.05
2022-09-15T13:13:19.408Z,98171.44
2022-09-15T13:18:27.728Z,98169.20
2022-09-15T13:23:40.286Z,98163.83
2022-09-15T13:28:51.501Z,98160.69
2022-09-15T13:40:22.712Z,98162.88
2022-09-15T13:45:44.519Z,98157.95
2022-09-15T13:50:56.175Z,98151.76
2022-09-15T13:56:08.210Z,98147.55
2022-09-15T14:01:18.409Z,98145.26
2022-09-15T14:06:30.676Z,98139.70
2022-09-15T14:11:40.162Z,98131.20
2022-09-15T14:16:52.965Z,98124.16
2022-09-15T14:22:00.501Z,98122.02
2022-09-15T14:27:14.689Z,98116.33
2022-09-15T14:32:22.521Z,98121.86
2022-09-15T14:37:32.384Z,98116.48
2022-09-15T14:42:43.738Z,98115.42
2022-09-15T14:48:00.195Z,98117.75
2022-09-15T14:53:09.481Z,98113.95
2022-09-15T14:58:23.175Z,98112.92
2022-09-15T15:03:37.315Z,98111.55
2022-09-15T15:08:49.743Z,98112.80
2022-09-15T15:13:57.944Z,98112.69
2022-09-15T15:19:05.445Z,98113.21
2022-09-15T15:24:28.789Z,98109.88
2022-09-15T15:29:47.433Z,98126.23
2022-09-15T15:34:56.573Z,98128.86
2022-09-15T15:40:08.163Z,98138.21
2022-09-15T15:45:24.503Z,98147.48
2022-09-15T15:50:33.717Z,98148.83
2022-09-15T15:55:45.164Z,98146.79
2022-09-15T16:00:54.981Z,98151.84
2022-09-15T16:06:03.605Z,98157.05
2022-09-15T16:11:13.351Z,98160.06
2022-09-15T16:16:22.659Z,98170.99
2022-09-15T16:21:37.335Z,98172.39
2022-09-15T16:26:45.338Z,98174.23
2022-09-15T16:31:53.146Z,98172.80
2022-09-15T16:37:00.710Z,98172.08
2022-09-15T16:42:09.644Z,98163.96
2022-09-15T16:47:17.323Z,98163.40
2022-09-15T16:52:25.121Z,98169.25
2022-09-15T16:57:32.570Z,98167.64
2022-09-15T17:02:39.758Z,98167.92
2022-09-15T17:07:47.216Z,98173.54
2022-09-15T17:12:54.499Z,98177.56
2022-09-15T17:18:02.136Z,98176.17
2022-09-15T17:23:23.710Z,98177.16
2022-09-15T17:28:32.985Z,98169.30
2022-09-15T17:33:39.846Z,98174.46
2022-09-15T17:38:49.228Z,98181.59
2022-09-15T17:43:56.540Z,98179.99
2022-09-15T17:49:03.857Z,98180.13
2022-09-15T17:54:12.826Z,98180.55
2022-09-15T17:59:20.204Z,98198.24
2022-09-15T18:04:27.551Z,98194.80
2022-09-15T18:09:34.861Z,98199.11
2022-09-15T18:14:42.582Z,98198.92
2022-09-15T18:19:49.666Z,98199.81
2022-09-15T18:24:56.739Z,98197.77
2022-09-15T18:30:04.407Z,98194.27
2022-09-15T18:35:16.345Z,98197.94
2022-09-15T18:40:26.267Z,98197.69
2022-09-15T18:45:33.461Z,98197.29
2022-09-15T18:50:40.793Z,98190.20
2022-09-15T18:55:48.075Z,98186.45
2022-09-15T19:01:00.743Z,98188.91
2022-09-15T19:06:08.629Z,98189.89
2022-09-15T19:11:15.500Z,98190.55
2022-09-15T19:16:34.510Z,98195.88
2022-09-15T19:21:47.871Z,98203.85
2022-09-15T19:26:54.883Z,98202.27
2022-09-15T19:32:02.536Z,98203.86
2022-09-15T19:37:13.164Z,98202.30
2022-09-15T19:42:23.530Z,98204.05
2022-09-15T19:47:30.724Z,98209.91
2022-09-15T19:52:37.946Z,98212.31
2022-09-15T19:57:46.808Z,98213.27
2022-09-15T20:02:53.953Z,98210.50
2022-09-15T20:08:01.260Z,98215.20
2022-09-15T20:13:08.583Z,98213.05
2022-09-15T20:18:17.969Z,98212.08
2022-09-15T20:23:25.261Z,98211.95
2022-09-15T20:28:32.803Z,98211.66
2022-09-15T20:33:41.406Z,98210.63
2022-09-15T20:38:50.129Z,98212.70
2022-09-15T20:43:57.543Z,98209.52
2022-09-15T20:49:05.022Z,98203.70
2022-09-15T20:54:13.578Z,98206.85
2022-09-15T20:59:20.749Z,98211.44
2022-09-15T21:04:28.140Z,98214.98
2022-09-15T21:09:35.520Z,98216.56
2022-09-15T21:14:42.588Z,98219.65
2022-09-15T21:19:49.707Z,98223.84
2022-09-15T21:24:56.861Z,98221.17
2022-09-15T21:30:03.900Z,98222.24
2022-09-15T21:35:11.781Z,98225.08
2022-09-15T21:40:19.158Z,98231.45
2022-09-15T21:45:26.211Z,98231.94
2022-09-15T21:50:33.341Z,98228.54
2022-09-15T21:55:41.139Z,98220.67
2022-09-15T22:00:48.223Z,98222.23
2022-09-15T22:05:56.411Z,98224.35
2022-09-15T22:11:03.987Z,98228.20
2022-09-15T22:16:14.525Z,98226.38
2022-09-15T22:21:23.577Z,98221.85
2022-09-15T22:26:32.308Z,98217.01
2022-09-15T22:31:39.384Z,98211.41
2022-09-15T22:36:46.540Z,98211.88
2022-09-15T22:41:53.711Z,98212.78
2022-09-15T22:47:01.274Z,98206.08
2022-09-15T22:52:08.468Z,98205.27
2022-09-15T22:57:15.791Z,98204.61
2022-09-15T23:02:23.186Z,98187.86
2022-09-15T23:07:30.273Z,98184.91
2022-09-15T23:12:37.377Z,98200.70
2022-09-15T23:17:44.378Z,98194.45
2022-09-15T23:22:51.583Z,98198.21
2022-09-15T23:27:58.612Z,98193.19
2022-09-15T23:33:06.578Z,98196.40
2022-09-15T23:38:14.240Z,98188.31
2022-09-15T23:43:22.423Z,98187.41
2022-09-15T23:48:31.950Z,98196.31
2022-09-15T23:53:40.242Z,98204.59
2022-09-15T23:58:48.571Z,98208.41
